KPLB/PLB METAR and TAF weather

Enter ICAO airport designator
Station Type Date Time Source
KPLB METAR 2007/05/24 13:50 UTC NOAA

KPLB 241350Z 04005KT 10SM SKC 21/13 A3030


Station Type Date Time Source
KPLB Decoded METAR 2007/05/24 13:50 UTC NOAA

Error!

Station Type Date Time Source
KPLB TAF UTC NOAA

Error!


Example: see airport list